Time;durP1;ratioP1;P1;durP2;ratioP2;P2;SDS_P1;SDS_P2;PMS_P1;PMS_P2;Temp;Humidity;BMP_temperature;BMP_pressure;BME280_temperature;BME280_humidity;BME280_pressure;Samples;Min_cycle;Max_cycle;Signal;HPM_P1;HPM_P2
2023/09/22 00:00:43;;;;;;;6.70;4.90;;;;;;;19.10;45.19;100664.90;108144;1283;21985;-58
2023/09/22 00:03:09;;;;;;;7.90;4.30;;;;;;;19.03;45.33;100665.89;108159;1282;22000;-68
2023/09/22 00:05:35;;;;;;;6.50;4.40;;;;;;;18.99;45.68;100669.43;108113;1288;23056;-58
2023/09/22 00:08:01;;;;;;;8.20;3.90;;;;;;;18.99;45.87;100666.06;108131;1288;22623;-59
2023/09/22 00:10:26;;;;;;;6.20;3.90;;;;;;;18.99;45.94;100666.23;107850;1286;21990;-58
2023/09/22 00:12:54;;;;;;;5.50;3.20;;;;;;;18.94;45.90;100666.24;108114;1288;21991;-57
2023/09/22 00:15:21;;;;;;;9.70;4.10;;;;;;;18.89;46.18;100672.69;108141;1288;21993;-67
2023/09/22 00:17:47;;;;;;;8.40;5.30;;;;;;;18.87;46.53;100670.60;108108;1283;21997;-57
2023/09/22 00:20:15;;;;;;;7.60;6.10;;;;;;;18.87;46.61;100671.13;108117;1288;21990;-57
2023/09/22 00:22:42;;;;;;;11.20;7.80;;;;;;;18.90;46.59;100675.65;108163;1278;21994;-67
2023/09/22 00:25:09;;;;;;;11.80;7.60;;;;;;;18.91;46.46;100676.66;108164;1288;21995;-58
2023/09/22 00:27:35;;;;;;;9.30;7.10;;;;;;;18.91;46.30;100676.67;108109;1280;21990;-69
2023/09/22 00:30:02;;;;;;;11.60;8.80;;;;;;;18.87;46.22;100674.17;108182;1277;21995;-68
2023/09/22 00:32:28;;;;;;;11.70;9.60;;;;;;;18.79;46.18;100675.74;108112;1288;21999;-68
2023/09/22 00:34:54;;;;;;;9.20;8.10;;;;;;;18.71;46.58;100678.23;108157;1280;22011;-68
2023/09/22 00:37:20;;;;;;;9.30;6.10;;;;;;;18.68;46.94;100680.80;108111;1287;22000;-58
2023/09/22 00:39:46;;;;;;;8.10;6.30;;;;;;;18.71;47.30;100683.52;108171;1288;21988;-64
2023/09/22 00:42:11;;;;;;;7.40;6.00;;;;;;;18.77;47.36;100687.94;108146;1280;21994;-58
2023/09/22 00:44:37;;;;;;;11.70;7.70;;;;;;;18.81;47.18;100688.11;108112;1283;22004;-67
2023/09/22 00:47:03;;;;;;;11.00;7.80;;;;;;;18.80;46.86;100694.71;108103;1283;21990;-57
2023/09/22 00:49:29;;;;;;;9.50;7.70;;;;;;;18.82;46.78;100697.14;108178;1284;21993;-68
2023/09/22 00:51:55;;;;;;;11.90;8.50;;;;;;;18.84;46.87;100696.14;108123;1277;21993;-58
2023/09/22 00:54:21;;;;;;;9.50;7.30;;;;;;;18.88;46.87;100691.17;107845;1288;22028;-59
2023/09/22 00:56:47;;;;;;;10.80;8.30;;;;;;;18.92;47.07;100688.73;108107;1280;21994;-58
2023/09/22 00:59:15;;;;;;;12.40;8.50;;;;;;;18.96;47.27;100686.10;107847;1287;21984;-68
2023/09/22 01:01:42;;;;;;;11.40;8.30;;;;;;;18.99;47.33;100683.82;108112;1283;21987;-68
2023/09/22 01:04:08;;;;;;;15.30;9.40;;;;;;;19.00;47.38;100683.61;108134;1283;21989;-68
2023/09/22 01:06:35;;;;;;;15.20;9.30;;;;;;;18.99;47.25;100687.55;108106;1277;21995;-68
2023/09/22 01:09:05;;;;;;;15.90;9.80;;;;;;;18.99;47.37;100688.98;108091;1280;23631;-68
2023/09/22 01:11:34;;;;;;;11.80;9.40;;;;;;;18.99;47.50;100690.05;110009;1286;21866;-68
2023/09/22 01:14:00;;;;;;;13.80;9.40;;;;;;;18.95;47.52;100688.10;109985;1286;22345;-69
2023/09/22 01:16:26;;;;;;;16.80;10.90;;;;;;;18.89;47.67;100690.98;109779;1283;21995;-68
2023/09/22 01:18:52;;;;;;;14.30;11.00;;;;;;;18.80;47.91;100692.22;109968;1287;21922;-58
2023/09/22 01:21:18;;;;;;;13.80;10.40;;;;;;;18.73;48.22;100692.86;109446;1286;23645;-69
2023/09/22 01:23:43;;;;;;;13.70;10.40;;;;;;;18.73;48.44;100693.06;108127;1288;21990;-68
2023/09/22 01:26:09;;;;;;;13.80;10.70;;;;;;;18.78;48.57;100696.42;108088;1281;21995;-68
2023/09/22 01:28:34;;;;;;;17.10;13.70;;;;;;;18.80;48.58;100700.22;107835;1283;22003;-69
2023/09/22 01:31:01;;;;;;;19.40;15.20;;;;;;;18.83;48.41;100702.26;108081;1280;21992;-68
2023/09/22 01:33:29;;;;;;;23.30;17.10;;;;;;;18.83;48.27;100702.80;108119;1283;21993;-57
2023/09/22 01:35:55;;;;;;;21.30;16.50;;;;;;;18.78;47.90;100701.56;108160;1283;22032;-69
2023/09/22 01:38:23;;;;;;;16.50;13.90;;;;;;;18.69;47.85;100701.40;108120;1286;21994;-65
2023/09/22 01:40:49;;;;;;;17.80;14.60;;;;;;;18.57;47.82;100704.02;108112;1284;21992;-59
2023/09/22 01:43:16;;;;;;;14.10;12.10;;;;;;;18.43;47.83;100709.72;108159;1285;22003;-60
2023/09/22 01:45:42;;;;;;;10.70;9.40;;;;;;;18.30;48.21;100708.99;108143;1283;22011;-69
2023/09/22 01:48:08;;;;;;;9.30;7.90;;;;;;;18.21;48.55;100708.80;108174;1288;21993;-59
2023/09/22 01:50:37;;;;;;;8.50;7.00;;;;;;;18.17;48.79;100713.41;108098;1288;21995;-69
2023/09/22 01:53:08;;;;;;;8.00;6.40;;;;;;;18.16;49.25;100709.01;108196;1288;21990;-68
2023/09/22 01:55:35;;;;;;;8.50;6.70;;;;;;;18.18;49.50;100705.76;108130;1288;23644;-69
2023/09/22 01:58:00;;;;;;;9.00;7.10;;;;;;;18.22;49.78;100705.95;108144;1283;21995;-70
2023/09/22 02:00:26;;;;;;;8.70;6.00;;;;;;;18.25;49.81;100708.13;108115;1288;21990;-69
2023/09/22 02:02:53;;;;;;;8.60;5.50;;;;;;;18.25;50.04;100705.83;108142;1288;22882;-70
2023/09/22 02:05:18;;;;;;;7.70;4.80;;;;;;;18.22;49.97;100704.67;108122;1278;22002;-69
2023/09/22 02:07:44;;;;;;;5.00;3.80;;;;;;;18.19;50.06;100704.81;108168;1280;23323;-69
2023/09/22 02:10:11;;;;;;;9.10;4.60;;;;;;;18.18;50.46;100699.72;108073;1280;21983;-69
2023/09/22 02:12:37;;;;;;;9.70;5.30;;;;;;;18.19;50.41;100694.67;108134;1283;21991;-59
2023/09/22 02:15:05;;;;;;;7.40;6.20;;;;;;;18.26;50.46;100694.96;108147;1284;21993;-59
2023/09/22 02:17:31;;;;;;;11.00;9.10;;;;;;;18.33;50.39;100699.63;108106;1288;22002;-59
2023/09/22 02:19:57;;;;;;;13.30;9.00;;;;;;;18.36;49.94;100701.99;108166;1283;21993;-59
2023/09/22 02:22:23;;;;;;;14.50;9.60;;;;;;;18.37;49.74;100704.45;108096;1287;22025;-69
2023/09/22 02:24:48;;;;;;;11.70;10.10;;;;;;;18.40;49.78;100707.68;108160;1288;22047;-70
2023/09/22 02:27:14;;;;;;;14.50;11.80;;;;;;;18.40;49.39;100705.61;108073;1283;22402;-69
2023/09/22 02:29:40;;;;;;;18.00;11.30;;;;;;;18.32;49.28;100708.76;107942;1288;22923;-68
2023/09/22 02:32:05;;;;;;;11.10;9.00;;;;;;;18.21;49.24;100713.27;107840;1287;21991;-69
2023/09/22 02:34:33;;;;;;;8.90;6.90;;;;;;;18.07;49.28;100714.86;108103;1288;21997;-69
2023/09/22 02:36:59;;;;;;;6.60;5.70;;;;;;;17.97;49.60;100714.85;108117;1280;21988;-70
2023/09/22 02:39:24;;;;;;;10.20;6.00;;;;;;;17.96;50.02;100717.36;108203;1286;23134;-69
2023/09/22 02:41:50;;;;;;;5.90;4.70;;;;;;;18.00;50.34;100717.96;108099;1287;21979;-69
2023/09/22 02:44:16;;;;;;;12.70;5.30;;;;;;;18.06;50.51;100721.31;108120;1283;21987;-69
2023/09/22 02:46:42;;;;;;;14.30;5.50;;;;;;;18.10;50.64;100718.98;108013;1288;21996;-69
2023/09/22 02:49:08;;;;;;;11.50;5.50;;;;;;;18.16;50.74;100718.77;108168;1287;22001;-69
2023/09/22 02:51:34;;;;;;;9.10;6.60;;;;;;;18.23;50.79;100718.16;108115;1280;21990;-58
2023/09/22 02:53:59;;;;;;;13.60;6.50;;;;;;;18.26;50.59;100711.28;108089;1287;21992;-58
2023/09/22 02:56:25;;;;;;;7.90;6.30;;;;;;;18.24;50.29;100710.13;108092;1280;21992;-58
2023/09/22 02:58:51;;;;;;;10.10;5.80;;;;;;;18.17;50.00;100708.08;108098;1288;21990;-58
2023/09/22 03:01:16;;;;;;;8.80;6.30;;;;;;;18.08;50.00;100708.42;108072;1286;22177;-69
2023/09/22 03:03:45;;;;;;;12.10;6.60;;;;;;;18.04;50.14;100710.36;108065;1283;21990;-69
2023/09/22 03:06:11;;;;;;;10.50;8.20;;;;;;;18.05;50.28;100713.86;108108;1288;21989;-69
2023/09/22 03:08:37;;;;;;;13.40;10.30;;;;;;;18.08;50.38;100714.83;108138;1288;22247;-58
2023/09/22 03:11:03;;;;;;;13.00;9.60;;;;;;;18.03;50.09;100716.06;108090;1283;22026;-69
2023/09/22 03:13:28;;;;;;;8.70;7.20;;;;;;;17.97;50.15;100713.61;108121;1287;21992;-58
2023/09/22 03:15:55;;;;;;;6.30;5.00;;;;;;;17.89;50.19;100713.02;108095;1283;21992;-58
2023/09/22 03:18:21;;;;;;;6.60;4.60;;;;;;;17.79;50.22;100715.33;108077;1288;21990;-69
2023/09/22 03:20:46;;;;;;;5.50;3.70;;;;;;;17.71;50.43;100717.91;108056;1288;21990;-69
2023/09/22 03:23:13;;;;;;;4.50;3.00;;;;;;;17.67;50.74;100715.02;108099;1286;21983;-58
2023/09/22 03:25:39;;;;;;;4.80;3.60;;;;;;;17.73;51.17;100713.95;108169;1283;22032;-68
2023/09/22 03:28:05;;;;;;;8.70;4.80;;;;;;;17.82;51.40;100713.44;108072;1280;22023;-69
2023/09/22 03:30:31;;;;;;;7.40;5.50;;;;;;;17.90;51.32;100715.97;108133;1284;21993;-58
2023/09/22 03:32:58;;;;;;;13.30;7.70;;;;;;;17.94;51.03;100717.77;108055;1288;21999;-58
2023/09/22 03:35:25;;;;;;;10.50;8.10;;;;;;;17.95;50.91;100718.63;108167;1280;21993;-68
2023/09/22 03:37:52;;;;;;;18.30;9.50;;;;;;;17.96;50.94;100719.30;108134;1288;21994;-59
2023/09/22 03:40:31;;;;;;;22.50;9.60;;;;;;;17.96;50.88;100724.09;108187;1288;21995;-68
2023/09/22 03:42:58;;;;;;;17.90;9.20;;;;;;;17.96;50.96;100725.33;108119;1288;21980;-68
2023/09/22 03:45:24;;;;;;;16.70;9.20;;;;;;;17.96;51.01;100727.81;108191;1288;22028;-69
2023/09/22 03:47:50;;;;;;;8.60;6.20;;;;;;;17.95;51.03;100726.78;108148;1281;24038;-58
2023/09/22 03:50:17;;;;;;;12.00;6.90;;;;;;;17.95;51.20;100731.23;108133;1280;21987;-68
2023/09/22 03:52:43;;;;;;;10.10;7.00;;;;;;;17.97;51.33;100734.38;108146;1288;22027;-58
2023/09/22 03:55:10;;;;;;;14.70;8.10;;;;;;;17.98;51.18;100738.77;108107;1287;21994;-68
2023/09/22 03:57:35;;;;;;;11.90;7.60;;;;;;;17.95;50.93;100737.27;108138;1288;21990;-58
2023/09/22 04:00:01;;;;;;;10.40;6.60;;;;;;;17.92;51.02;100735.43;108197;1288;21989;-68
2023/09/22 04:02:27;;;;;;;13.90;7.10;;;;;;;17.94;51.26;100734.13;108086;1280;21997;-58
2023/09/22 04:04:54;;;;;;;12.90;6.10;;;;;;;17.98;51.39;100734.88;108123;1287;22003;-58
2023/09/22 04:07:19;;;;;;;8.40;5.50;;;;;;;17.97;51.39;100737.73;108110;1277;21984;-58
2023/09/22 04:09:45;;;;;;;11.90;5.40;;;;;;;17.92;51.39;100736.84;108096;1283;21990;-58
2023/09/22 04:12:11;;;;;;;7.60;4.70;;;;;;;17.90;51.64;100740.30;108125;1288;21997;-68
2023/09/22 04:14:37;;;;;;;7.30;5.40;;;;;;;17.89;51.85;100740.15;108159;1277;21987;-57
2023/09/22 04:17:03;;;;;;;7.20;4.40;;;;;;;17.91;52.13;100741.85;108114;1280;21995;-58
2023/09/22 04:19:33;;;;;;;6.10;4.70;;;;;;;17.99;52.45;100740.19;108065;1288;21991;-68
2023/09/22 04:22:00;;;;;;;5.50;4.30;;;;;;;18.12;52.78;100742.19;108077;1277;22000;-58
2023/09/22 04:24:31;;;;;;;10.30;5.60;;;;;;;18.26;52.99;100741.30;108177;1278;21993;-55
2023/09/22 04:27:01;;;;;;;9.20;6.70;;;;;;;18.39;52.99;100737.41;108138;1288;21998;-66
2023/09/22 04:29:27;;;;;;;11.10;8.50;;;;;;;18.47;52.84;100738.36;108084;1283;21997;-57
2023/09/22 04:31:52;;;;;;;11.00;7.30;;;;;;;18.50;52.72;100734.70;108127;1280;22468;-68
2023/09/22 04:34:20;;;;;;;9.90;5.70;;;;;;;18.53;53.02;100735.63;108162;1288;22005;-67
2023/09/22 04:36:46;;;;;;;14.40;8.40;;;;;;;18.61;53.27;100734.44;108152;1283;22003;-67
2023/09/22 04:39:14;;;;;;;56.20;10.90;;;;;;;18.69;53.50;100728.22;108100;1285;22001;-68
2023/09/22 04:41:40;;;;;;;70.70;13.10;;;;;;;18.79;53.66;100728.73;108106;1281;22050;-67
2023/09/22 04:44:06;;;;;;;56.70;12.10;;;;;;;18.86;53.81;100728.94;108150;1288;21993;-67
2023/09/22 04:46:33;;;;;;;45.30;12.90;;;;;;;18.97;54.00;100728.02;108142;1288;21993;-57
2023/09/22 04:48:59;;;;;;;41.00;10.90;;;;;;;19.07;54.16;100730.79;108137;1286;22848;-57
2023/09/22 04:51:27;;;;;;;28.40;9.20;;;;;;;19.16;54.40;100732.39;108132;1277;22030;-68
2023/09/22 04:53:53;;;;;;;41.20;9.50;;;;;;;19.25;54.68;100730.58;108161;1287;21995;-68
2023/09/22 04:56:20;;;;;;;20.50;8.50;;;;;;;19.39;55.09;100731.40;108096;1288;22052;-69
2023/09/22 04:58:47;;;;;;;24.40;9.00;;;;;;;19.56;55.38;100732.07;108121;1288;21990;-58
2023/09/22 05:01:14;;;;;;;22.00;10.70;;;;;;;19.73;55.69;100734.02;108117;1288;22000;-68
2023/09/22 05:03:40;;;;;;;17.20;10.90;;;;;;;19.88;55.95;100729.60;108165;1283;22008;-59
2023/09/22 05:06:08;;;;;;;13.20;11.10;;;;;;;20.04;56.45;100729.96;108134;1286;21986;-59
2023/09/22 05:08:34;;;;;;;19.00;11.20;;;;;;;20.20;56.80;100730.66;108190;1277;21977;-67
2023/09/22 05:11:05;;;;;;;15.80;11.50;;;;;;;20.40;56.89;100728.98;108103;1288;23812;-68
2023/09/22 05:13:31;;;;;;;25.20;11.70;;;;;;;20.63;56.72;100728.96;108172;1283;22005;-57
2023/09/22 05:16:23;;;;;;;18.40;11.90;;;;;;;20.87;56.70;100726.52;108118;1283;22001;-57
2023/09/22 05:18:49;;;;;;;13.50;10.70;;;;;;;21.14;57.19;100726.26;108005;1287;21993;-58
2023/09/22 05:21:15;;;;;;;18.30;10.40;;;;;;;21.38;57.74;100726.85;108061;1281;22015;-65
2023/09/22 05:23:41;;;;;;;14.20;9.60;;;;;;;21.60;58.17;100724.98;108119;1288;21980;-68
2023/09/22 05:26:07;;;;;;;16.70;10.50;;;;;;;21.82;58.63;100721.55;108119;1288;21990;-59
2023/09/22 05:28:36;;;;;;;14.50;9.60;;;;;;;22.06;59.03;100722.23;108146;1280;21987;-67
2023/09/22 05:31:05;;;;;;;13.80;9.10;;;;;;;22.30;58.97;100723.36;108158;1280;21996;-58
2023/09/22 05:33:35;;;;;;;18.30;9.90;;;;;;;22.53;59.21;100725.50;108158;1288;22011;-68
2023/09/22 05:36:01;;;;;;;14.40;8.70;;;;;;;22.76;59.52;100724.05;108131;1287;22012;-59
2023/09/22 05:38:27;;;;;;;12.20;8.60;;;;;;;22.98;59.67;100721.70;108149;1288;22003;-67
2023/09/22 05:40:52;;;;;;;11.60;8.70;;;;;;;23.21;59.57;100721.45;108114;1288;22457;-68
2023/09/22 05:43:22;;;;;;;13.10;8.40;;;;;;;23.42;59.48;100721.23;108127;1285;22003;-68
2023/09/22 05:45:57;;;;;;;14.70;9.10;;;;;;;23.62;59.24;100722.02;108125;1281;21993;-68
2023/09/22 05:48:23;;;;;;;14.40;8.80;;;;;;;23.80;59.27;100720.38;108143;1288;21993;-58
2023/09/22 05:50:59;;;;;;;11.50;7.40;;;;;;;23.97;59.22;100719.67;108165;1280;21998;-57
2023/09/22 05:53:25;;;;;;;10.40;7.50;;;;;;;24.15;59.22;100717.31;108145;1288;22001;-58
2023/09/22 05:56:07;;;;;;;11.10;7.40;;;;;;;24.34;59.27;100714.66;108186;1288;22099;-63
2023/09/22 05:58:34;;;;;;;12.50;7.10;;;;;;;24.56;58.69;100710.19;108154;1287;22046;-67
2023/09/22 06:01:10;;;;;;;18.40;7.20;;;;;;;24.81;58.58;100714.83;108141;1288;21996;-59
2023/09/22 06:03:37;;;;;;;11.00;6.50;;;;;;;25.04;58.29;100721.55;108514;1284;22029;-58
2023/09/22 06:06:05;;;;;;;11.80;6.50;;;;;;;25.18;57.75;100728.30;108167;1283;21990;-67
2023/09/22 06:08:31;;;;;;;11.00;5.70;;;;;;;25.28;57.39;100729.61;108112;1288;21956;-68
2023/09/22 06:11:01;;;;;;;8.90;4.90;;;;;;;25.44;57.84;100728.38;108129;1288;21981;-69
2023/09/22 06:13:27;;;;;;;10.60;4.70;;;;;;;25.64;57.48;100734.41;108140;1280;22006;-66
2023/09/22 06:15:52;;;;;;;7.10;4.30;;;;;;;25.85;57.53;100740.11;108117;1287;22000;-68
2023/09/22 06:18:22;;;;;;;9.50;3.80;;;;;;;26.07;57.17;100742.34;108089;1284;22083;-59
2023/09/22 06:20:48;;;;;;;6.30;3.40;;;;;;;26.28;56.89;100744.09;108096;1280;21999;-68
2023/09/22 06:23:15;;;;;;;10.50;4.00;;;;;;;26.48;56.93;100744.58;108144;1280;22755;-68
2023/09/22 06:25:41;;;;;;;5.90;3.70;;;;;;;26.72;56.79;100744.29;108118;1279;22003;-59
2023/09/22 06:28:06;;;;;;;5.20;3.70;;;;;;;26.95;56.43;100744.05;108108;1278;22004;-68
2023/09/22 06:30:35;;;;;;;7.00;3.60;;;;;;;27.12;55.95;100741.80;108091;1288;22076;-68
2023/09/22 06:33:04;;;;;;;7.00;3.90;;;;;;;27.32;56.05;100746.45;108125;1286;24409;-68
2023/09/22 06:35:32;;;;;;;10.30;3.60;;;;;;;27.54;55.78;100747.63;108147;1286;22000;-60
2023/09/22 06:37:58;;;;;;;7.00;3.60;;;;;;;27.75;55.09;100750.18;108116;1288;21993;-66
2023/09/22 06:40:24;;;;;;;6.90;3.70;;;;;;;27.92;54.70;100747.77;108131;1288;22458;-66
2023/09/22 06:42:50;;;;;;;6.70;3.20;;;;;;;28.13;54.87;100743.88;108102;1278;21992;-66
2023/09/22 06:45:16;;;;;;;6.80;3.30;;;;;;;28.38;54.86;100741.23;108084;1281;21989;-66
2023/09/22 06:47:42;;;;;;;9.90;3.30;;;;;;;28.61;53.92;100741.83;108128;1288;21993;-59
2023/09/22 06:50:08;;;;;;;7.20;3.20;;;;;;;28.80;53.53;100742.13;108077;1283;21992;-58
2023/09/22 06:52:37;;;;;;;6.90;3.50;;;;;;;28.94;52.74;100741.34;108135;1286;22000;-68
2023/09/22 06:55:08;;;;;;;7.00;4.00;;;;;;;28.93;51.94;100738.67;108091;1283;23615;-66
2023/09/22 06:57:36;;;;;;;4.50;3.00;;;;;;;28.95;52.35;100737.94;108070;1288;23792;-67
2023/09/22 07:00:15;;;;;;;7.00;3.00;;;;;;;29.14;52.72;100735.80;108121;1283;22004;-66
2023/09/22 07:02:46;;;;;;;5.20;2.70;;;;;;;29.43;52.68;100738.98;108083;1287;22000;-67
2023/09/22 07:05:12;;;;;;;5.40;2.40;;;;;;;29.67;51.68;100741.08;108098;1288;22090;-59
2023/09/22 07:07:39;;;;;;;3.60;2.40;;;;;;;29.78;50.67;100742.67;108187;1288;22008;-59
2023/09/22 07:10:09;;;;;;;4.40;2.40;;;;;;;29.79;50.28;100746.30;108111;1283;21991;-58
2023/09/22 07:12:38;;;;;;;;;;;;;;;29.76;49.46;100750.23;108076;1284;23062;-67
2023/09/22 07:15:04;;;;;;;4.70;2.60;;;;;;;29.73;49.49;100750.89;108066;1283;21991;-67
2023/09/22 07:17:33;;;;;;;6.20;2.40;;;;;;;29.80;49.36;100752.75;108086;1280;22034;-67
2023/09/22 07:20:00;;;;;;;4.50;2.80;;;;;;;29.91;48.78;100745.31;108099;1288;22036;-58
2023/09/22 07:22:29;;;;;;;6.70;2.90;;;;;;;30.10;48.85;100750.31;108099;1288;22001;-59
2023/09/22 07:24:55;;;;;;;3.70;2.60;;;;;;;30.26;47.81;100752.19;108128;1286;21995;-67
2023/09/22 07:27:23;;;;;;;6.00;2.90;;;;;;;30.30;47.36;100753.68;108225;1288;21995;-68
2023/09/22 07:29:50;;;;;;;5.80;3.00;;;;;;;30.27;47.12;100757.53;108072;1283;22002;-66
2023/09/22 07:32:16;;;;;;;7.30;3.10;;;;;;;30.18;46.78;100755.59;108144;1283;21988;-59
2023/09/22 07:34:42;;;;;;;4.40;2.90;;;;;;;30.10;46.56;100754.45;108110;1288;22000;-59
2023/09/22 07:37:11;;;;;;;5.40;2.90;;;;;;;30.13;46.78;100753.49;108147;1287;21996;-67
2023/09/22 07:39:40;;;;;;;5.10;2.60;;;;;;;30.29;46.92;100749.23;108105;1288;21992;-59
2023/09/22 07:42:06;;;;;;;8.70;3.20;;;;;;;30.56;46.59;100750.98;108114;1288;21999;-60
2023/09/22 07:44:32;;;;;;;4.30;2.60;;;;;;;30.79;46.29;100748.70;108066;1288;22031;-60
2023/09/22 07:47:00;;;;;;;7.80;2.90;;;;;;;31.05;45.65;100750.60;108035;1288;21992;-68
2023/09/22 07:49:29;;;;;;;4.00;2.40;;;;;;;31.30;45.27;100745.08;108205;1283;22270;-67
2023/09/22 07:51:55;;;;;;;7.50;2.50;;;;;;;31.56;44.51;100747.88;108164;1284;21992;-67
2023/09/22 07:54:21;;;;;;;7.90;3.00;;;;;;;31.67;43.52;100751.20;108096;1288;22031;-60
2023/09/22 07:56:47;;;;;;;6.60;2.70;;;;;;;31.71;43.45;100749.36;108160;1288;23064;-58
2023/09/22 07:59:16;;;;;;;6.30;2.80;;;;;;;31.67;43.27;100745.73;108070;1288;21988;-67
2023/09/22 08:01:43;;;;;;;7.50;3.20;;;;;;;31.64;43.25;100743.02;108144;1280;22764;-59
2023/09/22 08:04:12;;;;;;;8.30;3.10;;;;;;;31.60;43.09;100739.88;108085;1284;21989;-68
2023/09/22 08:06:38;;;;;;;8.90;2.80;;;;;;;31.62;43.00;100742.83;108206;1286;21997;-59
2023/09/22 08:09:03;;;;;;;5.30;2.80;;;;;;;31.75;42.85;100737.39;108135;1288;21994;-67
2023/09/22 08:11:32;;;;;;;5.50;2.50;;;;;;;31.96;42.84;100741.86;107918;1283;21997;-59
2023/09/22 08:13:59;;;;;;;6.00;2.40;;;;;;;32.02;41.65;100747.28;108117;1280;21997;-59
2023/09/22 08:16:26;;;;;;;6.00;2.80;;;;;;;31.89;41.38;100746.42;108158;1279;22001;-67
2023/09/22 08:18:53;;;;;;;4.90;2.60;;;;;;;31.73;41.92;100740.99;108077;1280;21960;-59
2023/09/22 08:21:21;;;;;;;4.80;2.40;;;;;;;31.74;41.14;100737.63;108104;1280;21994;-67
2023/09/22 08:23:47;;;;;;;4.40;2.20;;;;;;;31.85;40.87;100735.67;108075;1288;21991;-60
2023/09/22 08:26:17;;;;;;;5.50;2.40;;;;;;;32.00;40.82;100737.48;107946;1284;24317;-59
2023/09/22 08:28:47;;;;;;;6.90;2.30;;;;;;;32.13;40.81;100740.95;108152;1288;21998;-60
2023/09/22 08:31:13;;;;;;;6.50;2.70;;;;;;;32.19;40.49;100737.51;107944;1288;22026;-68
2023/09/22 08:33:39;;;;;;;8.30;2.70;;;;;;;32.18;40.32;100727.09;107975;1286;24332;-59
2023/09/22 08:36:05;;;;;;;4.60;2.20;;;;;;;32.26;39.66;100727.33;108143;1287;21992;-59
2023/09/22 08:38:32;;;;;;;3.10;2.00;;;;;;;32.46;40.10;100719.80;108157;1288;22002;-70
2023/09/22 08:41:03;;;;;;;4.70;2.10;;;;;;;32.72;39.87;100719.89;108188;1288;21991;-67
2023/09/22 08:43:29;;;;;;;4.10;2.20;;;;;;;32.91;39.25;100715.84;108161;1288;21996;-67
2023/09/22 08:45:55;;;;;;;8.10;2.40;;;;;;;33.01;39.26;100707.02;108130;1288;22570;-60
2023/09/22 08:48:20;;;;;;;5.60;2.50;;;;;;;33.14;39.32;100709.29;107823;1288;21997;-60
2023/09/22 08:50:47;;;;;;;4.90;2.40;;;;;;;33.33;39.09;100703.73;107984;1289;22992;-68
2023/09/22 08:53:12;;;;;;;9.80;3.20;;;;;;;33.50;38.02;100703.26;108236;1288;21993;-68
2023/09/22 08:55:38;;;;;;;5.00;2.30;;;;;;;33.50;37.89;100703.59;108018;1289;22003;-67
2023/09/22 08:58:04;;;;;;;9.30;2.70;;;;;;;33.38;38.22;100695.75;107786;1279;22004;-67
2023/09/22 09:00:30;;;;;;;2.90;1.90;;;;;;;33.29;38.49;100695.56;107902;1281;21986;-67
2023/09/22 09:03:00;;;;;;;5.30;2.20;;;;;;;33.25;37.91;100701.87;107964;1289;21993;-67
2023/09/22 09:05:27;;;;;;;4.60;2.30;;;;;;;33.10;37.91;100704.27;108042;1289;23615;-60
2023/09/22 09:07:53;;;;;;;4.20;2.20;;;;;;;32.96;38.43;100706.05;108036;1288;22052;-60
2023/09/22 09:10:34;;;;;;;5.10;2.20;;;;;;;32.90;38.51;100706.85;108024;1287;21996;-68
2023/09/22 09:13:03;;;;;;;6.30;2.20;;;;;;;32.85;38.65;100707.73;108020;1286;21994;-65
2023/09/22 09:15:30;;;;;;;5.70;2.00;;;;;;;32.99;38.91;100705.02;108018;1289;22000;-60
2023/09/22 09:18:04;;;;;;;2.30;1.70;;;;;;;33.20;38.27;100705.80;108091;1281;21993;-68
2023/09/22 09:20:34;;;;;;;4.20;1.80;;;;;;;33.32;37.75;100711.13;108016;1289;21989;-67
2023/09/22 09:23:10;;;;;;;;;;;;;;;33.35;37.59;100712.80;108067;1289;22019;-61
2023/09/22 09:25:45;;;;;;;4.90;2.10;;;;;;;33.41;37.67;100710.21;108097;1288;22006;-67
2023/09/22 09:28:12;;;;;;;3.30;1.60;;;;;;;33.49;37.10;100719.20;108096;1280;22140;-60
2023/09/22 09:30:39;;;;;;;7.30;1.80;;;;;;;33.51;36.97;100715.20;108142;1286;22168;-59
2023/09/22 09:33:09;;;;;;;4.20;1.70;;;;;;;33.55;36.99;100710.23;107863;1288;21994;-67
2023/09/22 09:35:37;;;;;;;4.50;1.70;;;;;;;33.79;37.13;100710.29;108151;1288;21992;-60
2023/09/22 09:38:03;;;;;;;6.00;1.60;;;;;;;34.08;36.58;100711.14;108100;1288;21993;-60
2023/09/22 09:40:29;;;;;;;2.80;1.50;;;;;;;34.25;35.60;100708.27;108084;1288;21991;-60
2023/09/22 09:42:54;;;;;;;11.10;2.20;;;;;;;34.27;34.37;100704.95;108116;1288;22003;-62
2023/09/22 09:45:23;;;;;;;6.50;1.60;;;;;;;34.29;34.84;100707.34;107908;1288;22000;-66
2023/09/22 09:47:52;;;;;;;6.50;1.80;;;;;;;34.53;35.90;100711.62;108160;1288;24114;-67
2023/09/22 09:50:19;;;;;;;2.70;1.60;;;;;;;34.81;35.30;100709.73;108106;1288;22032;-67
2023/09/22 09:52:53;;;;;;;6.30;2.10;;;;;;;34.85;34.79;100710.05;107957;1288;21999;-61
2023/09/22 09:55:20;;;;;;;7.00;1.70;;;;;;;34.83;34.75;100707.14;108184;1288;21993;-61
2023/09/22 09:57:46;;;;;;;2.70;1.60;;;;;;;34.84;34.42;100708.48;107769;1288;23012;-60
2023/09/22 10:00:14;;;;;;;3.30;1.50;;;;;;;34.72;34.39;100710.17;108097;1288;21990;-62
2023/09/22 10:02:44;;;;;;;4.30;1.70;;;;;;;34.68;34.61;100710.89;108112;1288;22657;-60
2023/09/22 10:05:19;;;;;;;5.00;1.70;;;;;;;34.62;34.22;100712.31;108218;1288;21986;-61
2023/09/22 10:07:46;;;;;;;6.30;1.90;;;;;;;34.49;33.81;100707.61;108124;1288;23615;-68
2023/09/22 10:10:12;;;;;;;4.90;1.60;;;;;;;34.42;33.91;100705.59;108093;1288;22055;-61
2023/09/22 10:12:38;;;;;;;4.30;1.50;;;;;;;34.54;34.33;100706.13;108089;1288;21993;-61
2023/09/22 10:15:05;;;;;;;6.40;1.90;;;;;;;34.74;34.07;100708.30;108060;1288;22002;-67
2023/09/22 10:17:31;;;;;;;3.70;1.70;;;;;;;34.82;33.66;100707.06;108096;1280;23066;-61
2023/09/22 10:20:06;;;;;;;6.90;1.90;;;;;;;34.87;33.67;100704.14;108153;1288;21989;-60
2023/09/22 10:22:33;;;;;;;3.50;1.70;;;;;;;34.97;33.42;100705.19;108115;1288;23680;-60
2023/09/22 10:25:11;;;;;;;2.90;1.40;;;;;;;34.95;33.36;100707.28;108099;1288;22002;-67
2023/09/22 10:27:57;;;;;;;5.10;1.60;;;;;;;34.83;32.72;100703.98;108118;1283;24340;-67
2023/09/22 10:30:23;;;;;;;3.40;1.70;;;;;;;34.77;33.22;100706.29;108067;1288;22007;-61
2023/09/22 10:32:48;;;;;;;4.60;1.60;;;;;;;34.66;33.00;100709.01;107815;1288;22049;-68
2023/09/22 10:35:35;;;;;;;6.70;1.90;;;;;;;34.52;33.17;100705.16;107779;1286;22049;-61
2023/09/22 10:38:02;;;;;;;3.80;1.50;;;;;;;34.50;33.45;100699.26;107894;1288;21997;-67
2023/09/22 10:40:28;;;;;;;4.80;1.60;;;;;;;34.59;33.48;100692.95;108107;1284;24438;-68
2023/09/22 10:42:54;;;;;;;7.40;2.10;;;;;;;34.71;33.53;100700.30;108101;1288;22001;-63
2023/09/22 10:45:28;;;;;;;5.20;1.80;;;;;;;34.78;33.38;100705.63;108201;1288;21995;-67
2023/09/22 10:47:55;;;;;;;4.10;2.00;;;;;;;34.67;33.20;100695.58;108114;1288;21995;-60
2023/09/22 10:50:24;;;;;;;5.10;1.90;;;;;;;34.52;33.30;100698.17;108047;1288;21998;-66
2023/09/22 10:52:51;;;;;;;10.00;2.10;;;;;;;34.42;33.52;100696.29;108073;1282;22036;-65
2023/09/22 10:55:36;;;;;;;4.80;1.80;;;;;;;34.39;33.60;100695.15;108149;1286;22040;-66
2023/09/22 10:58:12;;;;;;;15.50;2.70;;;;;;;34.34;33.51;100695.11;108055;1288;21998;-66
2023/09/22 11:00:40;;;;;;;7.70;2.00;;;;;;;34.34;33.73;100688.76;108049;1288;21986;-60
2023/09/22 11:03:10;;;;;;;4.20;1.40;;;;;;;34.22;33.78;100685.02;108077;1280;21991;-60
2023/09/22 11:05:37;;;;;;;2.30;1.70;;;;;;;34.03;33.94;100682.80;108091;1288;21996;-60
2023/09/22 11:08:18;;;;;;;8.40;1.60;;;;;;;33.88;33.82;100685.11;108145;1288;21996;-60
2023/09/22 11:10:48;;;;;;;5.60;2.00;;;;;;;33.77;33.88;100684.63;108160;1288;21991;-60
2023/09/22 11:13:14;;;;;;;3.70;1.50;;;;;;;33.80;34.19;100687.57;108082;1286;21997;-67
2023/09/22 11:16:01;;;;;;;5.70;1.80;;;;;;;33.89;33.92;100686.23;108176;1288;23641;-65